createdAt,value
2019-04-07T00:04:56.660Z,26.04
2019-04-07T00:10:04.433Z,34.94
2019-04-07T00:15:14.245Z,23.37
2019-04-07T00:20:23.732Z,33.06
2019-04-07T00:25:31.685Z,26.90
2019-04-07T00:30:40.331Z,27.89
2019-04-07T00:35:48.830Z,28.03
2019-04-07T00:40:57.755Z,26.05
2019-04-07T00:46:08.811Z,30.35
2019-04-07T00:51:07.815Z,28.09
2019-04-07T00:56:15.977Z,25.09
2019-04-07T01:01:24.558Z,31.81
2019-04-07T01:06:33.972Z,26.92
2019-04-07T01:11:41.122Z,27.18
2019-04-07T01:16:50.703Z,26.26
2019-04-07T01:21:59.094Z,23.61
2019-04-07T01:27:08.217Z,25.66
2019-04-07T01:32:15.092Z,28.42
2019-04-07T01:37:22.779Z,27.45
2019-04-07T01:42:31.158Z,25.67
2019-04-07T01:47:39.693Z,43.17
2019-04-07T01:52:48.029Z,32.72
2019-04-07T01:57:55.390Z,26.31
2019-04-07T02:03:03.366Z,23.14
2019-04-07T02:08:10.824Z,20.66
2019-04-07T02:13:17.788Z,19.53
2019-04-07T02:18:25.471Z,23.02
2019-04-07T02:23:34.115Z,20.75
2019-04-07T02:28:42.995Z,22.03
2019-04-07T02:33:49.968Z,22.63
2019-04-07T02:38:58.223Z,21.26
2019-04-07T02:44:05.076Z,16.57
2019-04-07T02:49:12.934Z,27.10
2019-04-07T02:54:21.409Z,17.93
2019-04-07T02:59:29.314Z,18.82
2019-04-07T03:04:38.429Z,22.89
2019-04-07T03:09:45.459Z,36.10
2019-04-07T03:14:53.452Z,20.02
2019-04-07T03:20:00.742Z,39.77
2019-04-07T03:25:08.131Z,45.93
2019-04-07T03:30:17.746Z,32.96
2019-04-07T03:35:26.562Z,29.02
2019-04-07T03:40:31.787Z,25.99
2019-04-07T03:45:41.320Z,23.95
2019-04-07T03:50:47.908Z,26.74
2019-04-07T03:55:55.737Z,37.78
2019-04-07T04:01:05.147Z,30.34
2019-04-07T04:06:11.751Z,24.62
2019-04-07T04:11:20.426Z,32.66
2019-04-07T04:16:28.483Z,25.51
2019-04-07T04:21:34.984Z,23.90
2019-04-07T04:26:42.644Z,21.07
2019-04-07T04:31:51.171Z,20.66
2019-04-07T04:36:59.977Z,19.28
2019-04-07T04:42:08.507Z,20.46
2019-04-07T04:47:16.639Z,28.11
2019-04-07T04:52:24.000Z,23.25
2019-04-07T04:57:31.881Z,23.57
2019-04-07T05:02:39.447Z,20.55
2019-04-07T05:07:54.889Z,19.57
2019-04-07T05:12:53.677Z,21.20
2019-04-07T05:18:01.618Z,20.63
2019-04-07T05:23:08.782Z,23.00
2019-04-07T05:28:17.308Z,19.02
2019-04-07T05:33:25.475Z,17.80
2019-04-07T05:38:32.817Z,17.86
2019-04-07T05:43:41.528Z,18.76
2019-04-07T05:48:50.507Z,17.93
2019-04-07T05:53:56.195Z,18.62
2019-04-07T05:59:04.894Z,17.16
2019-04-07T06:04:16.946Z,19.70
2019-04-07T06:09:20.902Z,15.97
2019-04-07T06:14:29.458Z,16.88
2019-04-07T06:19:41.147Z,17.06
2019-04-07T06:24:45.987Z,15.22
2019-04-07T06:29:57.162Z,17.37
2019-04-07T06:35:00.593Z,16.14
2019-04-07T06:40:09.162Z,15.69
2019-04-07T06:45:20.707Z,15.84
2019-04-07T06:50:24.821Z,45.66
2019-04-07T06:55:33.390Z,17.93
2019-04-07T07:00:40.771Z,16.50
2019-04-07T07:05:48.296Z,14.98
2019-04-07T07:10:57.348Z,14.39
2019-04-07T07:16:07.955Z,15.01
2019-04-07T07:21:13.278Z,13.68
2019-04-07T07:26:21.727Z,14.08
2019-04-07T07:31:28.349Z,13.28
2019-04-07T07:36:37.083Z,61.14
2019-04-07T07:41:50.321Z,25.39
2019-04-07T07:46:49.163Z,14.85
2019-04-07T07:51:53.729Z,11.98
2019-04-07T07:57:03.072Z,63.58
2019-04-07T08:02:11.038Z,12.26
2019-04-07T08:07:20.826Z,42.37
2019-04-07T08:12:32.370Z,12.79
2019-04-07T08:17:36.692Z,47.40
2019-04-07T08:22:46.042Z,10.56
2019-04-07T08:27:53.133Z,28.82
2019-04-07T08:33:02.058Z,9.41
2019-04-07T08:38:08.846Z,9.12
2019-04-07T08:43:19.669Z,9.23
2019-04-07T08:48:24.132Z,9.03
2019-04-07T08:53:34.223Z,8.63
2019-04-07T08:58:42.572Z,10.09
2019-04-07T09:03:49.713Z,8.94
2019-04-07T09:08:57.435Z,7.93
2019-04-07T09:14:07.672Z,7.54
2019-04-07T09:19:13.739Z,7.34
2019-04-07T09:24:26.944Z,7.48
2019-04-07T09:29:31.312Z,6.81
2019-04-07T09:34:38.764Z,6.45
2019-04-07T09:39:56.947Z,6.22
2019-04-07T09:44:54.234Z,6.08
2019-04-07T09:50:03.631Z,5.89
2019-04-07T09:55:14.191Z,5.29
2019-04-07T10:00:12.665Z,4.57
2019-04-07T10:05:19.578Z,4.45
2019-04-07T10:10:29.290Z,4.86
2019-04-07T10:15:37.435Z,4.76
2019-04-07T10:20:44.482Z,4.81
2019-04-07T10:25:52.206Z,4.78
2019-04-07T10:31:01.036Z,5.05
2019-04-07T10:36:09.323Z,4.83
2019-04-07T10:41:18.375Z,5.09
2019-04-07T10:46:25.960Z,4.58
2019-04-07T10:51:32.715Z,4.66
2019-04-07T10:56:41.122Z,4.66
2019-04-07T11:01:50.150Z,4.78
2019-04-07T11:06:57.518Z,4.79
2019-04-07T11:12:04.659Z,4.80
2019-04-07T11:17:13.921Z,4.73
2019-04-07T11:22:20.495Z,4.41
2019-04-07T11:27:29.373Z,4.76
2019-04-07T11:32:36.976Z,4.72
2019-04-07T11:37:45.882Z,5.06
2019-04-07T11:42:54.112Z,5.10
2019-04-07T11:48:03.431Z,5.04
2019-04-07T11:53:11.315Z,4.75
2019-04-07T11:58:26.691Z,4.89
2019-04-07T12:03:27.947Z,4.77
2019-04-07T12:08:36.178Z,5.20
2019-04-07T12:13:44.942Z,4.94
2019-04-07T12:18:53.389Z,4.73
2019-04-07T12:24:03.425Z,4.73
2019-04-07T12:29:02.644Z,4.78
2019-04-07T12:34:13.214Z,4.97
2019-04-07T12:39:18.866Z,4.55
2019-04-07T12:44:25.570Z,4.78
2019-04-07T12:49:35.203Z,5.17
2019-04-07T12:54:43.585Z,5.14
2019-04-07T12:59:51.680Z,4.86
2019-04-07T13:04:59.697Z,4.77
2019-04-07T13:10:07.260Z,4.71
2019-04-07T13:15:14.478Z,5.11
2019-04-07T13:20:21.511Z,4.99
2019-04-07T13:25:31.126Z,4.70
2019-04-07T13:30:37.575Z,4.73
2019-04-07T13:35:45.762Z,5.02
2019-04-07T13:40:54.193Z,4.47
2019-04-07T13:46:03.622Z,4.85
2019-04-07T13:51:10.946Z,4.80
2019-04-07T13:56:18.684Z,4.68
2019-04-07T14:01:25.703Z,5.15
2019-04-07T14:06:33.930Z,5.38
2019-04-07T14:11:53.466Z,5.52
2019-04-07T14:16:48.674Z,5.64
2019-04-07T14:21:56.363Z,6.15
2019-04-07T14:27:04.385Z,5.94
2019-04-07T14:32:11.993Z,5.74
2019-04-07T14:37:20.553Z,5.87
2019-04-07T14:42:29.407Z,6.41
2019-04-07T14:47:37.087Z,6.48
2019-04-07T14:52:45.116Z,6.25
2019-04-07T14:57:53.558Z,6.48
2019-04-07T15:03:00.922Z,6.50
2019-04-07T15:08:08.608Z,6.64
2019-04-07T15:13:15.987Z,6.66
2019-04-07T15:18:24.296Z,6.90
2019-04-07T15:23:33.374Z,6.26
2019-04-07T15:28:41.546Z,6.55
2019-04-07T15:33:48.338Z,6.70
2019-04-07T15:38:57.511Z,6.62
2019-04-07T15:44:07.004Z,6.88
2019-04-07T15:49:12.679Z,7.55
2019-04-07T15:54:24.131Z,7.13
2019-04-07T15:59:30.348Z,6.96
2019-04-07T16:04:38.310Z,6.90
2019-04-07T16:09:52.708Z,7.78
2019-04-07T16:14:53.583Z,7.94
2019-04-07T16:20:01.907Z,7.81
2019-04-07T16:25:11.192Z,8.15
2019-04-07T16:30:19.457Z,8.90
2019-04-07T16:35:26.336Z,9.04
2019-04-07T16:40:41.931Z,8.84
2019-04-07T16:45:38.792Z,9.19
2019-04-07T16:50:46.396Z,9.11
2019-04-07T16:55:55.588Z,9.44
2019-04-07T17:01:02.680Z,9.61
2019-04-07T17:06:12.270Z,9.45
2019-04-07T17:11:19.122Z,9.05
2019-04-07T17:16:26.706Z,9.41
2019-04-07T17:21:39.325Z,9.39
2019-04-07T17:26:43.546Z,9.56
2019-04-07T17:36:56.300Z,10.52
2019-04-07T17:42:05.873Z,11.92
2019-04-07T17:47:13.657Z,9.73
2019-04-07T17:52:24.614Z,9.56
2019-04-07T17:57:34.752Z,10.09
2019-04-07T18:02:43.123Z,9.77
2019-04-07T18:07:46.143Z,9.92
2019-04-07T18:12:55.592Z,9.81
2019-04-07T18:18:03.018Z,9.79
2019-04-07T18:23:11.544Z,10.59
2019-04-07T18:28:23.888Z,10.27
2019-04-07T18:33:28.024Z,10.37
2019-04-07T18:38:35.001Z,10.62
2019-04-07T18:43:50.735Z,10.46
2019-04-07T18:48:51.318Z,10.77
2019-04-07T18:54:01.767Z,10.85
2019-04-07T18:59:07.564Z,11.24
2019-04-07T19:04:17.266Z,11.16
2019-04-07T19:09:23.913Z,11.15
2019-04-07T19:14:40.123Z,11.09
2019-04-07T19:19:39.787Z,11.47
2019-04-07T19:24:48.036Z,11.48
2019-04-07T19:29:57.460Z,11.56
2019-04-07T19:35:05.814Z,12.21
2019-04-07T19:40:14.481Z,12.41
2019-04-07T19:45:24.528Z,13.41
2019-04-07T19:50:35.776Z,13.49
2019-04-07T19:55:35.309Z,13.38
2019-04-07T20:00:43.954Z,12.80
2019-04-07T20:05:53.354Z,12.77
2019-04-07T20:11:01.247Z,12.66
2019-04-07T20:16:12.908Z,13.13
2019-04-07T20:21:18.593Z,12.35
2019-04-07T20:26:26.593Z,13.21
2019-04-07T20:31:34.527Z,13.37
2019-04-07T20:36:42.943Z,14.04
2019-04-07T20:41:52.515Z,14.09
2019-04-07T20:47:01.588Z,13.84
2019-04-07T20:52:10.384Z,13.59
2019-04-07T20:57:22.413Z,13.98
2019-04-07T21:02:27.171Z,13.51
2019-04-07T21:07:36.117Z,13.82
2019-04-07T21:12:47.061Z,14.34
2019-04-07T21:17:54.400Z,14.25
2019-04-07T21:23:02.857Z,14.07
2019-04-07T21:28:10.822Z,14.34
2019-04-07T21:33:23.603Z,14.81
2019-04-07T21:38:29.990Z,14.54
2019-04-07T21:43:36.105Z,14.58
2019-04-07T21:48:44.180Z,14.98
2019-04-07T21:53:53.047Z,15.37
2019-04-07T21:59:01.108Z,16.08
2019-04-07T22:04:08.367Z,16.61
2019-04-07T22:09:17.055Z,15.87
2019-04-07T22:14:23.393Z,16.06
2019-04-07T22:19:31.939Z,15.99
2019-04-07T22:24:40.178Z,16.50
2019-04-07T22:29:48.973Z,16.35
2019-04-07T22:34:56.053Z,16.71
2019-04-07T22:40:05.147Z,15.50
2019-04-07T22:45:12.025Z,16.13
2019-04-07T22:50:21.268Z,16.20
2019-04-07T22:55:29.103Z,15.82
2019-04-07T23:00:35.418Z,15.32
2019-04-07T23:05:42.984Z,15.02
2019-04-07T23:10:50.924Z,15.90
2019-04-07T23:16:08.709Z,15.80
2019-04-07T23:21:06.191Z,15.16
2019-04-07T23:26:13.970Z,15.62
2019-04-07T23:31:22.376Z,15.27
2019-04-07T23:36:30.532Z,15.25
2019-04-07T23:41:39.368Z,15.19
2019-04-07T23:46:46.155Z,15.85
2019-04-07T23:51:53.842Z,15.64
2019-04-07T23:57:02.368Z,15.75
